Time;durP1;ratioP1;P1;durP2;ratioP2;P2;SDS_P1;SDS_P2;PMS_P1;PMS_P2;Temp;Humidity;BMP_temperature;BMP_pressure;BME280_temperature;BME280_humidity;BME280_pressure;Samples;Min_cycle;Max_cycle;Signal;HPM_P1;HPM_P2
2023/06/07 00:01:17;;;;;;;4.95;2.10;;;;;;;9.72;50.84;102197.94;5104309;27;20036;-73
2023/06/07 00:03:44;;;;;;;12.60;4.25;;;;;;;9.72;50.49;102191.00;5058846;28;20252;-71
2023/06/07 00:06:10;;;;;;;4.68;2.17;;;;;;;9.61;50.82;102190.31;5097651;27;20063;-72
2023/06/07 00:08:38;;;;;;;8.25;2.58;;;;;;;9.69;50.92;102191.03;5073249;28;20313;-73
2023/06/07 00:11:03;;;;;;;11.70;3.33;;;;;;;9.68;50.64;102191.03;5073689;28;20027;-72
2023/06/07 00:13:29;;;;;;;10.10;2.78;;;;;;;9.60;50.78;102184.19;5072663;28;20542;-73
2023/06/07 00:15:54;;;;;;;9.80;3.10;;;;;;;9.60;50.68;102193.78;5073984;28;20511;-72
2023/06/07 00:18:20;;;;;;;13.90;2.97;;;;;;;9.61;50.87;102190.31;5073301;28;20044;-74
2023/06/07 00:20:46;;;;;;;9.02;2.97;;;;;;;9.70;51.04;102194.50;5075195;28;20035;-75
2023/06/07 00:23:15;;;;;;;9.18;3.22;;;;;;;9.60;51.19;102193.78;5072500;28;20042;-76
2023/06/07 00:25:42;;;;;;;11.57;2.67;;;;;;;9.67;50.80;102195.41;5079479;28;20283;-77
2023/06/07 00:28:07;;;;;;;8.57;3.03;;;;;;;9.56;51.00;102197.31;5070185;27;20767;-74
2023/06/07 00:30:33;;;;;;;8.27;2.60;;;;;;;9.60;51.20;102193.78;5084599;27;20039;-74
2023/06/07 00:32:58;;;;;;;12.35;1.90;;;;;;;9.59;50.90;102197.28;5079931;28;20060;-75
2023/06/07 00:35:24;;;;;;;9.90;2.20;;;;;;;9.64;50.96;102184.16;5075672;28;20659;-73
2023/06/07 00:37:50;;;;;;;7.90;1.98;;;;;;;9.64;50.89;102187.63;5075639;27;20044;-73
2023/06/07 00:40:15;;;;;;;5.38;2.65;;;;;;;9.54;51.33;102193.88;5053046;28;20673;-74
2023/06/07 00:42:42;;;;;;;9.02;3.35;;;;;;;9.61;51.21;102187.69;5074354;28;20048;-74
2023/06/07 00:45:08;;;;;;;7.75;3.00;;;;;;;9.58;51.13;102190.31;5089404;27;20023;-73
2023/06/07 00:47:38;;;;;;;7.30;2.90;;;;;;;9.46;51.43;102177.47;5086434;27;20084;-74
2023/06/07 00:50:05;;;;;;;9.77;2.70;;;;;;;9.54;51.47;102180.81;5073972;27;20027;-74
2023/06/07 00:52:35;;;;;;;11.25;3.50;;;;;;;9.57;51.37;102184.25;5059863;28;20594;-76
2023/06/07 00:55:02;;;;;;;9.43;3.05;;;;;;;9.54;51.39;102172.97;5075009;28;20047;-75
2023/06/07 00:57:32;;;;;;;14.40;3.65;;;;;;;9.54;51.64;102173.88;5061595;28;20383;-74
2023/06/07 01:00:00;;;;;;;11.43;3.03;;;;;;;9.42;51.95;102176.66;5087680;27;20047;-74
2023/06/07 01:02:26;;;;;;;9.18;2.28;;;;;;;9.43;52.08;102177.50;5069181;27;20334;-74
2023/06/07 01:04:52;;;;;;;5.75;1.55;;;;;;;9.47;51.76;102172.22;5055652;28;20691;-73
2023/06/07 01:07:22;;;;;;;11.25;2.63;;;;;;;9.40;52.13;102167.97;5063209;28;20062;-75
2023/06/07 01:09:47;;;;;;;13.07;2.90;;;;;;;9.32;52.26;102173.31;5075877;28;20039;-75
2023/06/07 01:12:16;;;;;;;10.55;2.85;;;;;;;9.36;51.99;102169.75;5081483;28;20028;-73
2023/06/07 01:14:42;;;;;;;10.52;3.53;;;;;;;9.39;52.00;102174.94;5060298;28;20047;-74
2023/06/07 01:17:08;;;;;;;17.35;2.88;;;;;;;9.35;52.02;102180.22;5105620;27;20084;-75
2023/06/07 01:19:36;;;;;;;7.25;2.28;;;;;;;9.30;52.44;102169.88;5074161;28;21390;-72
2023/06/07 01:22:06;;;;;;;13.82;3.83;;;;;;;9.24;52.51;102172.53;5063609;28;20061;-72
2023/06/07 01:24:35;;;;;;;11.48;2.47;;;;;;;9.25;52.60;102179.47;5073115;28;20077;-72
2023/06/07 01:27:02;;;;;;;9.27;2.50;;;;;;;9.09;52.86;102176.22;5079016;28;20038;-70
2023/06/07 01:29:30;;;;;;;12.98;2.80;;;;;;;9.14;52.81;102168.31;5091486;27;20044;-70
2023/06/07 01:31:58;;;;;;;15.13;2.53;;;;;;;9.06;53.42;102172.81;5095677;27;20240;-71
2023/06/07 01:34:25;;;;;;;10.73;2.47;;;;;;;9.10;52.92;102172.75;5075499;27;20227;-70
2023/06/07 01:36:54;;;;;;;14.25;2.15;;;;;;;9.01;53.48;102174.59;5079356;27;20028;-71
2023/06/07 01:39:21;;;;;;;14.38;2.45;;;;;;;9.04;53.64;102172.81;5058415;28;20663;-74
2023/06/07 01:41:49;;;;;;;9.38;1.90;;;;;;;9.18;52.99;102164.78;5068697;28;20466;-71
2023/06/07 01:44:15;;;;;;;11.00;2.63;;;;;;;9.32;52.48;102172.44;5070252;28;20039;-70
2023/06/07 01:46:42;;;;;;;12.85;2.42;;;;;;;9.25;52.59;102166.44;5071536;28;20242;-72
2023/06/07 01:49:07;;;;;;;6.85;2.15;;;;;;;9.26;52.94;102162.97;5075260;28;20043;-68
2023/06/07 01:51:33;;;;;;;11.90;1.95;;;;;;;9.39;52.19;102161.91;5053491;28;20230;-68
2023/06/07 01:53:59;;;;;;;7.85;1.42;;;;;;;9.39;52.83;102158.44;5060502;28;20436;-70
2023/06/07 01:56:46;;;;;;;9.07;1.73;;;;;;;9.39;52.66;102159.28;5057313;28;20044;-64
2023/06/07 01:59:27;;;;;;;8.65;1.48;;;;;;;9.53;52.65;102155.63;5068276;28;20147;-70
2023/06/07 02:02:22;;;;;;;9.70;2.25;;;;;;;9.56;52.61;102160.78;5070554;28;20047;-71
2023/06/07 02:04:53;;;;;;;7.47;1.42;;;;;;;9.55;52.51;102164.28;5064404;28;20126;-71
2023/06/07 02:07:23;;;;;;;14.43;2.08;;;;;;;9.61;52.13;102169.41;5072860;28;20051;-71
2023/06/07 02:09:50;;;;;;;11.13;2.53;;;;;;;9.57;52.22;102165.13;5069594;28;20219;-71
2023/06/07 02:12:17;;;;;;;7.30;1.65;;;;;;;9.61;51.98;102161.59;5076433;28;20497;-72
2023/06/07 02:14:45;;;;;;;9.20;1.70;;;;;;;9.65;52.13;102160.63;5069433;28;20043;-68
2023/06/07 02:17:11;;;;;;;9.30;1.83;;;;;;;9.67;51.38;102164.06;5073960;28;20119;-68
2023/06/07 02:19:37;;;;;;;2.80;1.08;;;;;;;9.72;51.75;102156.16;5053058;28;20040;-70
2023/06/07 02:22:03;;;;;;;8.25;1.23;;;;;;;9.73;52.02;102161.38;5069839;28;20035;-67
2023/06/07 02:24:29;;;;;;;8.95;2.20;;;;;;;9.88;51.50;102162.94;5071340;28;20123;-70
2023/06/07 02:26:55;;;;;;;8.45;2.03;;;;;;;9.77;51.43;102163.06;5072622;28;20032;-72
2023/06/07 02:29:21;;;;;;;7.78;2.17;;;;;;;9.73;51.68;102155.31;5069722;28;20048;-71
2023/06/07 02:31:49;;;;;;;14.00;2.33;;;;;;;9.67;52.05;102153.63;5102318;27;20495;-72
2023/06/07 02:34:14;;;;;;;7.20;1.45;;;;;;;9.82;51.05;102147.34;5071340;28;20380;-71
2023/06/07 02:36:41;;;;;;;6.90;2.10;;;;;;;9.79;51.58;102152.59;5078794;28;21569;-74
2023/06/07 02:39:07;;;;;;;17.10;3.38;;;;;;;9.80;51.58;102149.97;5038821;28;20643;-72
2023/06/07 02:41:33;;;;;;;7.75;2.10;;;;;;;9.70;51.50;102152.72;5090319;27;20031;-72
2023/06/07 02:43:59;;;;;;;5.70;1.27;;;;;;;9.70;52.09;102143.16;5071367;28;20683;-72
2023/06/07 02:46:25;;;;;;;10.70;1.70;;;;;;;9.75;52.02;102148.31;5055383;28;20639;-76
2023/06/07 02:48:52;;;;;;;9.07;2.00;;;;;;;9.91;51.42;102146.34;5058690;28;20042;-73
2023/06/07 02:51:18;;;;;;;9.55;1.92;;;;;;;9.92;51.41;102154.16;5072672;28;20079;-72
2023/06/07 02:53:45;;;;;;;8.98;2.25;;;;;;;9.89;51.30;102150.72;5067698;28;20142;-72
2023/06/07 02:56:12;;;;;;;8.43;1.95;;;;;;;10.05;51.28;102152.16;5054280;28;20036;-74
2023/06/07 02:58:37;;;;;;;8.73;2.20;;;;;;;10.02;51.23;102150.47;5056659;28;20667;-72
2023/06/07 03:01:07;;;;;;;10.80;2.78;;;;;;;10.15;51.38;102145.06;5056692;28;20334;-71
2023/06/07 03:03:37;;;;;;;15.02;1.70;;;;;;;9.91;51.52;102157.63;5100003;27;20420;-72
2023/06/07 03:06:09;;;;;;;6.97;2.03;;;;;;;10.15;51.22;102151.13;5060696;28;20035;-71
2023/06/07 03:08:37;;;;;;;6.38;2.05;;;;;;;10.21;50.77;102153.66;5070706;28;20036;-74
2023/06/07 03:11:03;;;;;;;6.60;1.90;;;;;;;10.22;51.30;102154.50;5071857;28;20027;-73
2023/06/07 03:13:34;;;;;;;10.15;2.58;;;;;;;10.38;50.72;102163.78;5067811;27;20043;-71
2023/06/07 03:16:02;;;;;;;10.82;1.80;;;;;;;10.38;50.94;102158.53;5089005;27;20031;-72
2023/06/07 03:18:31;;;;;;;9.38;2.25;;;;;;;10.53;50.62;102156.53;5080073;27;20147;-76
2023/06/07 03:21:00;;;;;;;10.90;2.20;;;;;;;10.59;50.09;102154.66;5069919;28;20066;-73
2023/06/07 03:23:28;;;;;;;9.82;2.30;;;;;;;10.58;50.55;102160.78;5039732;27;20376;-75
2023/06/07 03:25:56;;;;;;;5.35;1.83;;;;;;;10.45;50.33;102148.84;5080626;27;20335;-75
2023/06/07 03:28:25;;;;;;;11.25;2.20;;;;;;;10.52;50.41;102160.88;5075283;28;20191;-75
2023/06/07 03:30:50;;;;;;;11.52;1.92;;;;;;;10.41;51.04;102149.78;5058183;28;20027;-70
2023/06/07 03:33:22;;;;;;;9.60;1.85;;;;;;;10.45;50.90;102154.06;5073325;28;20040;-71
2023/06/07 03:35:48;;;;;;;6.35;1.35;;;;;;;10.46;51.06;102152.31;5075005;28;20074;-73
2023/06/07 03:38:20;;;;;;;7.53;2.13;;;;;;;10.63;50.49;102158.06;5058285;27;20078;-71
2023/06/07 03:40:50;;;;;;;7.13;1.90;;;;;;;10.64;50.45;102155.44;5079474;27;20034;-68
2023/06/07 03:43:15;;;;;;;4.97;2.00;;;;;;;10.45;50.59;102154.06;5071778;28;20036;-68
2023/06/07 03:45:42;;;;;;;12.25;2.30;;;;;;;10.56;50.73;102157.31;5073709;28;20701;-70
2023/06/07 03:48:11;;;;;;;6.75;1.95;;;;;;;10.72;50.41;102151.78;5060429;27;20411;-68
2023/06/07 03:50:37;;;;;;;8.93;1.67;;;;;;;10.67;50.10;102161.50;5081232;27;20028;-68
2023/06/07 03:53:03;;;;;;;10.43;2.13;;;;;;;10.63;50.60;102158.94;5079825;28;20032;-69
2023/06/07 03:55:30;;;;;;;8.98;1.83;;;;;;;10.84;50.31;102162.91;5073102;28;20032;-68
2023/06/07 03:57:57;;;;;;;9.73;1.67;;;;;;;10.88;49.93;102158.47;5077621;28;20035;-69
2023/06/07 04:00:27;;;;;;;7.28;2.03;;;;;;;10.94;49.64;102162.72;5104739;27;20039;-69
2023/06/07 04:02:55;;;;;;;7.28;1.98;;;;;;;11.01;49.37;102165.16;5056020;28;20083;-68
2023/06/07 04:05:20;;;;;;;6.53;1.60;;;;;;;11.03;49.88;102160.75;5073313;28;20146;-69
2023/06/07 04:07:47;;;;;;;7.38;1.65;;;;;;;11.12;49.65;102157.06;5074867;28;20032;-69
2023/06/07 04:10:13;;;;;;;6.05;1.63;;;;;;;11.16;50.07;102163.13;5056406;28;20031;-68
2023/06/07 04:12:41;;;;;;;7.90;2.20;;;;;;;11.02;49.95;102161.66;5086338;27;20039;-69
2023/06/07 04:15:07;;;;;;;8.48;1.80;;;;;;;11.09;49.48;102164.16;5079267;28;20483;-69
2023/06/07 04:17:34;;;;;;;8.80;1.60;;;;;;;11.23;49.58;102156.84;5061502;27;20039;-69
2023/06/07 04:19:59;;;;;;;10.93;1.95;;;;;;;11.28;49.29;102160.22;5080182;27;20043;-69
2023/06/07 04:22:26;;;;;;;16.75;2.80;;;;;;;11.25;48.95;102161.16;5071847;27;20097;-71
2023/06/07 04:24:53;;;;;;;7.30;1.52;;;;;;;11.33;48.27;102160.09;5074283;27;20549;-72
2023/06/07 04:27:19;;;;;;;9.25;2.67;;;;;;;11.37;48.25;102162.63;5073602;27;20586;-71
2023/06/07 04:29:48;;;;;;;9.65;1.90;;;;;;;11.36;48.87;102160.06;5070764;27;20032;-71
2023/06/07 04:32:18;;;;;;;8.77;3.40;;;;;;;11.24;48.43;102154.22;5072378;27;20054;-73
2023/06/07 04:34:46;;;;;;;16.63;1.92;;;;;;;11.07;48.69;102163.31;5084238;27;20055;-73
2023/06/07 04:37:12;;;;;;;5.50;1.10;;;;;;;10.91;49.20;102165.41;5063273;28;20126;-72
2023/06/07 04:39:40;;;;;;;10.05;1.25;;;;;;;10.95;49.18;102160.06;5077039;27;20626;-73
2023/06/07 04:42:09;;;;;;;12.15;1.83;;;;;;;11.01;48.77;102159.91;5071013;27;20779;-72
2023/06/07 04:44:36;;;;;;;10.02;1.25;;;;;;;11.23;48.12;102157.69;5085769;27;20051;-68
2023/06/07 04:47:10;;;;;;;10.50;1.85;;;;;;;11.28;47.98;102157.59;5078759;27;20042;-67
2023/06/07 04:49:38;;;;;;;9.88;1.83;;;;;;;11.14;48.44;102154.44;5073211;27;20036;-72
2023/06/07 04:52:05;;;;;;;8.93;1.00;;;;;;;11.16;48.12;102150.03;5097613;27;20046;-74
2023/06/07 04:54:36;;;;;;;8.70;1.63;;;;;;;11.36;48.05;102150.44;5070784;27;20040;-75
2023/06/07 04:57:03;;;;;;;7.47;1.23;;;;;;;11.30;48.09;102150.56;5081082;27;20420;-74
2023/06/07 04:59:34;;;;;;;16.58;3.05;;;;;;;11.16;48.38;102147.41;5057146;28;20043;-74
2023/06/07 05:02:02;;;;;;;7.15;1.50;;;;;;;11.16;48.73;102147.41;5091446;27;20028;-74
2023/06/07 05:04:28;;;;;;;7.75;1.70;;;;;;;10.94;48.53;102154.88;5072437;27;20046;-75
2023/06/07 05:06:58;;;;;;;5.82;1.08;;;;;;;10.81;49.04;102151.59;5067467;27;20340;-74
2023/06/07 05:09:25;;;;;;;10.30;1.40;;;;;;;11.37;47.97;102146.91;5067488;28;20118;-70
2023/06/07 05:11:51;;;;;;;5.18;1.58;;;;;;;11.59;47.35;102149.03;5073890;27;20092;-71
2023/06/07 05:14:17;;;;;;;6.65;1.50;;;;;;;11.53;46.82;102143.94;5055489;27;20775;-72
2023/06/07 05:16:43;;;;;;;11.05;1.98;;;;;;;11.66;46.82;102151.50;5077681;27;20063;-72
2023/06/07 05:19:10;;;;;;;8.23;1.80;;;;;;;11.56;48.09;102159.59;5080576;28;20051;-73
2023/06/07 05:21:38;;;;;;;9.93;2.30;;;;;;;11.65;47.43;102151.50;5079770;27;20085;-71
2023/06/07 05:24:05;;;;;;;10.40;1.30;;;;;;;11.52;47.05;102152.72;5079531;28;20035;-72
2023/06/07 05:26:31;;;;;;;3.15;1.05;;;;;;;11.36;46.83;102155.69;5079592;28;20042;-72
2023/06/07 05:28:56;;;;;;;4.35;1.13;;;;;;;11.30;46.69;102149.72;5075139;27;20097;-68
2023/06/07 05:31:22;;;;;;;16.23;2.30;;;;;;;11.59;46.42;102154.28;5078248;28;20440;-67
2023/06/07 05:33:49;;;;;;;12.27;2.40;;;;;;;11.68;46.65;102156.66;5067687;27;20445;-70
2023/06/07 05:36:18;;;;;;;9.60;1.58;;;;;;;11.83;45.60;102156.31;5082747;27;20080;-73
2023/06/07 05:38:45;;;;;;;9.40;1.08;;;;;;;11.44;46.15;102164.22;5069028;28;20115;-68
2023/06/07 05:41:11;;;;;;;4.22;1.27;;;;;;;11.92;45.92;102162.25;5070682;28;20043;-72
2023/06/07 05:43:37;;;;;;;14.25;1.25;;;;;;;12.04;45.54;102162.81;5072080;27;20059;-72
2023/06/07 05:46:03;;;;;;;10.45;1.23;;;;;;;12.06;45.71;102173.22;5087223;27;20023;-71
2023/06/07 05:48:29;;;;;;;6.05;1.35;;;;;;;11.94;45.98;102168.31;5080909;27;20027;-71
2023/06/07 05:50:55;;;;;;;7.15;1.30;;;;;;;12.24;45.00;102171.88;5066687;27;20294;-72
2023/06/07 05:53:21;;;;;;;9.13;0.88;;;;;;;12.20;45.07;102176.38;5071447;28;20043;-73
2023/06/07 05:55:48;;;;;;;8.70;1.00;;;;;;;12.19;44.72;102174.63;5067162;28;20074;-71
2023/06/07 05:58:14;;;;;;;12.15;1.33;;;;;;;12.18;45.97;102174.66;5070145;28;20315;-69
2023/06/07 06:00:40;;;;;;;11.45;1.42;;;;;;;12.30;45.32;102179.59;5068830;28;20050;-68
2023/06/07 06:03:06;;;;;;;7.88;1.42;;;;;;;12.52;44.71;102176.41;5070735;27;20039;-73
2023/06/07 06:05:32;;;;;;;10.95;1.20;;;;;;;12.40;45.10;102188.94;5066703;28;20036;-72
2023/06/07 06:07:57;;;;;;;10.73;1.65;;;;;;;12.49;44.99;102188.69;5070433;27;20039;-71
2023/06/07 06:10:24;;;;;;;10.20;1.33;;;;;;;12.46;45.17;102191.38;5069442;28;20576;-72
2023/06/07 06:12:50;;;;;;;3.78;1.10;;;;;;;12.39;44.99;102187.22;5063470;28;20027;-68
2023/06/07 06:15:15;;;;;;;8.63;1.50;;;;;;;12.61;44.82;102190.09;5070480;28;20639;-66
2023/06/07 06:17:41;;;;;;;7.20;1.35;;;;;;;12.45;44.53;102197.53;5067272;27;20128;-66
2023/06/07 06:20:08;;;;;;;7.15;0.88;;;;;;;12.58;44.23;102194.56;5077847;28;20275;-66
2023/06/07 06:22:34;;;;;;;7.75;1.23;;;;;;;12.81;42.96;102188.72;5067342;27;20038;-66
2023/06/07 06:24:59;;;;;;;5.30;1.70;;;;;;;12.72;44.15;102184.59;5076601;28;20527;-68
2023/06/07 06:27:25;;;;;;;4.50;1.83;;;;;;;12.78;43.77;102194.94;5069587;28;20070;-68
2023/06/07 06:29:50;;;;;;;13.27;1.05;;;;;;;12.85;42.61;102190.38;5066518;27;20130;-68
2023/06/07 06:32:16;;;;;;;4.90;1.35;;;;;;;12.93;42.69;102192.75;5098600;27;20040;-67
2023/06/07 06:34:46;;;;;;;5.00;1.35;;;;;;;13.65;42.27;102199.34;5061501;27;20076;-68
2023/06/07 06:37:12;;;;;;;6.32;1.00;;;;;;;15.41;37.88;102194.00;5070393;28;20035;-69
2023/06/07 06:39:38;;;;;;;8.60;1.27;;;;;;;15.13;37.57;102189.78;5064213;27;20054;-69
2023/06/07 06:42:03;;;;;;;6.80;1.55;;;;;;;14.38;39.42;102197.75;5067431;28;20514;-67
2023/06/07 06:44:49;;;;;;;6.80;1.48;;;;;;;13.85;40.83;102209.22;5052800;28;20508;-69
2023/06/07 06:47:15;;;;;;;6.78;1.05;;;;;;;13.58;41.88;102207.44;5068258;28;20088;-67
2023/06/07 06:49:40;;;;;;;7.40;1.65;;;;;;;14.02;40.40;102202.53;5068998;27;20043;-66
2023/06/07 06:52:06;;;;;;;4.88;1.25;;;;;;;13.63;41.66;102203.78;5058337;28;20032;-69
2023/06/07 06:54:32;;;;;;;14.38;1.58;;;;;;;13.69;41.42;102203.56;5060070;27;20051;-67
2023/06/07 06:56:57;;;;;;;10.63;1.58;;;;;;;14.31;40.02;102197.13;5071055;27;20031;-69
2023/06/07 06:59:22;;;;;;;11.48;1.30;;;;;;;14.92;39.73;102206.38;5033509;27;20044;-69
2023/06/07 07:01:48;;;;;;;10.43;1.40;;;;;;;15.33;37.68;102206.63;5067561;27;20042;-68
2023/06/07 07:04:15;;;;;;;3.63;1.00;;;;;;;15.03;37.97;102209.47;5073259;27;20219;-68
2023/06/07 07:06:41;;;;;;;14.07;2.15;;;;;;;16.40;36.26;102217.19;5072402;27;20030;-69
2023/06/07 07:09:07;;;;;;;7.40;1.45;;;;;;;16.02;36.69;102205.63;5071820;27;20039;-67
2023/06/07 07:11:33;;;;;;;11.25;1.50;;;;;;;16.92;35.24;102219.31;5070606;27;20032;-66
2023/06/07 07:13:59;;;;;;;6.40;1.23;;;;;;;18.15;33.28;102210.75;5072454;27;20895;-68
2023/06/07 07:16:25;;;;;;;5.30;1.58;;;;;;;17.89;33.33;102210.28;5074141;27;20062;-65
2023/06/07 07:18:50;;;;;;;5.03;1.70;;;;;;;18.44;33.06;102209.28;5062677;27;20126;-66
2023/06/07 07:21:18;;;;;;;6.05;2.08;;;;;;;19.13;31.41;102212.69;5070452;27;20483;-67
2023/06/07 07:23:45;;;;;;;6.25;1.27;;;;;;;19.09;31.67;102209.34;5069084;27;20039;-66
2023/06/07 07:26:11;;;;;;;9.75;1.42;;;;;;;20.01;29.65;102206.75;5068640;28;20027;-66
2023/06/07 07:28:37;;;;;;;4.80;1.00;;;;;;;19.58;30.28;102209.25;5076028;28;20447;-69
2023/06/07 07:31:02;;;;;;;9.57;2.80;;;;;;;19.63;30.81;102212.50;5075373;28;20047;-66
2023/06/07 07:33:28;;;;;;;5.85;1.55;;;;;;;19.13;31.01;102212.69;5072234;27;20043;-67
2023/06/07 07:35:53;;;;;;;8.73;1.67;;;;;;;18.31;32.40;102217.00;5105421;27;20385;-68
2023/06/07 07:38:18;;;;;;;6.57;1.27;;;;;;;18.14;32.47;102211.69;5074043;27;20268;-66
2023/06/07 07:40:44;;;;;;;7.22;1.13;;;;;;;17.53;34.03;102210.31;5073884;28;20494;-69
2023/06/07 07:43:10;;;;;;;9.48;2.10;;;;;;;17.64;33.96;102218.56;5073222;28;20059;-69
2023/06/07 07:45:37;;;;;;;10.30;1.45;;;;;;;18.20;33.21;102222.84;5073681;27;20031;-69
2023/06/07 07:48:05;;;;;;;6.55;1.40;;;;;;;20.34;30.34;102224.28;5070780;28;20061;-69
2023/06/07 07:50:31;;;;;;;4.82;1.25;;;;;;;22.80;25.82;102218.91;5071136;28;20146;-69
2023/06/07 07:52:57;;;;;;;7.18;1.23;;;;;;;22.46;25.38;102221.25;5070064;27;20041;-69
2023/06/07 07:55:23;;;;;;;5.68;1.58;;;;;;;22.34;26.53;102216.78;5102377;27;20318;-69
2023/06/07 07:57:49;;;;;;;8.93;1.75;;;;;;;23.62;25.47;102211.16;5061964;27;20369;-69
2023/06/07 08:00:16;;;;;;;5.78;1.65;;;;;;;24.00;23.68;102207.44;5075072;27;20184;-69
2023/06/07 08:02:44;;;;;;;9.43;1.15;;;;;;;22.83;26.08;102212.50;5086033;27;20187;-70
2023/06/07 08:05:10;;;;;;;6.93;1.35;;;;;;;21.31;27.17;102224.47;5073263;27;20028;-69
2023/06/07 08:07:36;;;;;;;6.07;0.90;;;;;;;23.30;24.58;102211.75;5066633;27;20039;-68
2023/06/07 08:10:01;;;;;;;4.28;1.38;;;;;;;24.11;23.47;102215.47;5073918;27;20023;-68
2023/06/07 08:12:27;;;;;;;3.53;1.40;;;;;;;24.73;23.16;102214.22;5075822;27;20032;-68
2023/06/07 08:14:52;;;;;;;4.68;1.48;;;;;;;24.46;22.96;102217.25;5072905;27;20857;-69
2023/06/07 08:17:19;;;;;;;6.22;1.10;;;;;;;24.65;23.56;102214.81;5073930;27;20059;-68
2023/06/07 08:19:45;;;;;;;5.75;1.52;;;;;;;25.41;21.63;102214.94;5070819;27;20083;-70
2023/06/07 08:22:11;;;;;;;4.80;2.05;;;;;;;26.49;21.01;102214.75;5070731;28;20342;-70
2023/06/07 08:24:37;;;;;;;6.35;1.60;;;;;;;25.84;22.38;102214.06;5070567;28;20042;-68
2023/06/07 08:27:03;;;;;;;3.85;1.08;;;;;;;25.01;22.62;102210.19;5073333;28;20028;-68
2023/06/07 08:29:28;;;;;;;4.32;1.27;;;;;;;25.07;22.52;102210.69;5067075;27;20039;-68
2023/06/07 08:31:54;;;;;;;9.95;2.25;;;;;;;22.26;25.64;102219.13;5067743;28;20048;-69
2023/06/07 08:34:22;;;;;;;8.90;1.83;;;;;;;21.59;26.92;102211.19;5069593;28;20051;-69
2023/06/07 08:36:49;;;;;;;5.28;1.45;;;;;;;21.84;26.78;102218.38;5067348;27;20083;-70
2023/06/07 08:39:17;;;;;;;8.82;1.40;;;;;;;21.97;27.05;102221.94;5098442;27;20028;-69
2023/06/07 08:41:45;;;;;;;6.97;1.48;;;;;;;23.88;25.31;102221.72;5070696;28;20278;-70
2023/06/07 08:44:11;;;;;;;11.30;1.33;;;;;;;23.27;25.00;102219.97;5053649;27;20047;-69
2023/06/07 08:46:37;;;;;;;8.38;1.85;;;;;;;21.54;27.01;102227.47;5069269;27;20407;-69
2023/06/07 08:49:05;;;;;;;5.95;1.63;;;;;;;21.56;27.85;102220.22;5084531;27;20480;-69
2023/06/07 08:51:36;;;;;;;13.52;1.83;;;;;;;22.09;26.48;102225.59;5071437;28;20594;-70
2023/06/07 08:54:03;;;;;;;8.75;1.95;;;;;;;22.06;27.96;102223.97;5072960;28;20043;-70
2023/06/07 08:56:31;;;;;;;4.63;1.20;;;;;;;23.48;24.71;102219.38;5079419;28;20036;-70
2023/06/07 08:58:59;;;;;;;11.63;1.85;;;;;;;23.87;24.07;102214.69;5070680;27;20059;-69
2023/06/07 09:01:28;;;;;;;5.50;1.90;;;;;;;24.08;24.43;102213.06;5079422;27;20040;-69
2023/06/07 09:03:54;;;;;;;5.90;1.02;;;;;;;24.16;23.08;102215.97;5069889;27;20044;-70
2023/06/07 09:06:21;;;;;;;8.77;1.67;;;;;;;24.33;23.47;102221.84;5083571;27;20043;-68
2023/06/07 09:08:47;;;;;;;3.90;1.67;;;;;;;23.46;24.83;102218.63;5066655;27;20438;-69
2023/06/07 09:11:14;;;;;;;9.48;1.48;;;;;;;23.77;24.86;102217.19;5069530;28;20047;-70
2023/06/07 09:13:40;;;;;;;11.60;2.10;;;;;;;23.41;24.72;102214.47;5067778;27;20136;-69
2023/06/07 09:16:05;;;;;;;6.63;1.75;;;;;;;23.28;26.03;102212.84;5067927;28;20461;-68
2023/06/07 09:18:45;;;;;;;5.80;1.90;;;;;;;23.40;25.30;102222.59;5068123;28;20042;-70
2023/06/07 09:21:22;;;;;;;10.25;2.30;;;;;;;23.04;25.75;102215.44;5070153;28;20490;-70
2023/06/07 09:23:51;;;;;;;8.40;2.20;;;;;;;22.71;26.21;102220.41;5081715;27;20039;-68
2023/06/07 09:26:18;;;;;;;6.55;1.95;;;;;;;22.35;26.53;102213.16;5067315;28;20034;-69
2023/06/07 09:28:47;;;;;;;8.52;2.05;;;;;;;22.33;26.76;102218.56;5069470;28;20520;-69
2023/06/07 09:31:26;;;;;;;8.68;1.48;;;;;;;22.48;26.49;102208.69;5071211;28;20054;-69
2023/06/07 09:33:51;;;;;;;9.13;1.90;;;;;;;21.91;27.80;102214.34;5051066;28;20844;-70
2023/06/07 09:36:17;;;;;;;6.85;1.52;;;;;;;20.87;28.43;102214.84;5069061;28;20039;-69
2023/06/07 09:38:42;;;;;;;10.15;1.65;;;;;;;21.02;28.67;102217.47;5068058;27;20036;-68
2023/06/07 09:41:10;;;;;;;5.80;1.77;;;;;;;20.87;28.36;102211.34;5070390;28;20039;-68
2023/06/07 09:43:49;;;;;;;11.77;2.03;;;;;;;20.58;29.24;102208.69;5068880;28;20035;-69
2023/06/07 09:46:15;;;;;;;8.40;2.20;;;;;;;20.74;29.28;102206.75;5068839;28;20126;-71
2023/06/07 09:48:48;;;;;;;5.75;2.30;;;;;;;20.05;30.23;102202.97;5061058;27;20039;-71
2023/06/07 09:51:15;;;;;;;12.90;2.83;;;;;;;20.06;31.23;102210.00;5086296;27;20046;-70
2023/06/07 09:54:03;;;;;;;5.57;1.58;;;;;;;19.96;30.00;102203.53;5074030;28;20319;-71
2023/06/07 09:56:28;;;;;;;9.85;1.77;;;;;;;19.45;31.72;102208.22;5071781;28;20516;-70
2023/06/07 09:59:14;;;;;;;6.60;1.55;;;;;;;19.59;31.31;102205.69;5083310;27;20063;-71
2023/06/07 10:01:45;;;;;;;7.57;2.30;;;;;;;19.28;31.90;102198.59;5067224;28;20039;-70
2023/06/07 10:04:13;;;;;;;10.27;2.72;;;;;;;19.32;31.69;102212.50;5064177;27;20032;-70
2023/06/07 10:06:42;;;;;;;6.35;2.15;;;;;;;19.42;31.75;102201.31;5067868;28;20127;-71
2023/06/07 10:09:09;;;;;;;6.90;2.13;;;;;;;19.37;31.07;102207.78;5081819;27;20050;-70
2023/06/07 10:11:39;;;;;;;20.25;2.42;;;;;;;19.30;31.35;102200.22;5067268;28;20061;-68
2023/06/07 10:14:06;;;;;;;10.95;2.17;;;;;;;19.62;30.69;102205.50;5066707;28;20516;-70
2023/06/07 10:16:36;;;;;;;9.27;2.75;;;;;;;19.39;31.60;102197.97;5069331;28;20832;-68
2023/06/07 10:19:17;;;;;;;7.43;2.40;;;;;;;19.47;32.43;102199.22;5083273;27;20035;-69
2023/06/07 10:21:45;;;;;;;22.58;2.90;;;;;;;19.65;32.04;102201.81;5077654;28;20480;-71
2023/06/07 10:24:16;;;;;;;13.82;2.72;;;;;;;19.35;31.94;102197.28;5078397;27;20507;-71
2023/06/07 10:26:52;;;;;;;10.65;4.95;;;;;;;19.56;32.23;102195.25;5074760;28;20043;-71
2023/06/07 10:29:28;;;;;;;11.43;2.85;;;;;;;19.48;31.41;102202.75;5067756;27;20555;-71
2023/06/07 10:32:05;;;;;;;8.48;2.92;;;;;;;19.45;31.50;102194.97;5076541;27;20531;-71
2023/06/07 10:34:35;;;;;;;7.75;2.40;;;;;;;19.55;31.23;102203.22;5074459;27;20147;-71
2023/06/07 10:37:02;;;;;;;10.25;2.28;;;;;;;19.76;30.78;102199.38;5074707;28;20031;-72
2023/06/07 10:39:27;;;;;;;7.85;2.28;;;;;;;19.18;31.74;102195.59;5068685;28;20040;-71
2023/06/07 10:41:53;;;;;;;12.73;2.97;;;;;;;19.55;31.63;102197.94;5071930;28;20065;-71
2023/06/07 10:44:19;;;;;;;12.35;2.28;;;;;;;19.68;32.17;102193.66;5069549;27;20047;-72
2023/06/07 10:46:47;;;;;;;14.73;2.85;;;;;;;20.13;30.81;102194.56;5075910;27;20031;-72
2023/06/07 10:49:35;;;;;;;10.77;2.15;;;;;;;19.89;31.68;102196.88;5069681;28;20105;-72
2023/06/07 10:52:01;;;;;;;10.57;2.22;;;;;;;19.96;31.78;102187.59;5070488;28;20043;-72
2023/06/07 10:54:31;;;;;;;16.73;2.38;;;;;;;19.71;31.27;102191.69;5077656;27;20356;-70
2023/06/07 10:56:59;;;;;;;8.48;2.20;;;;;;;19.37;31.58;102200.72;5072983;28;20352;-72
2023/06/07 10:59:27;;;;;;;9.50;1.63;;;;;;;18.95;31.93;102188.06;5077057;28;21196;-71
2023/06/07 11:02:20;;;;;;;5.97;1.85;;;;;;;19.42;31.21;102193.34;5070280;27;20039;-71
2023/06/07 11:04:53;;;;;;;7.25;2.40;;;;;;;19.78;30.48;102197.50;5074478;27;20032;-71
2023/06/07 11:07:30;;;;;;;10.57;2.15;;;;;;;19.22;31.30;102197.13;5072829;28;20173;-72
2023/06/07 11:10:04;;;;;;;7.78;2.15;;;;;;;19.70;30.55;102192.66;5085139;27;20400;-71
2023/06/07 11:12:40;;;;;;;8.82;2.67;;;;;;;20.18;30.16;102184.53;5080267;27;20067;-72
2023/06/07 11:15:20;;;;;;;6.20;1.60;;;;;;;19.81;31.16;102193.81;5068746;28;20104;-72
2023/06/07 11:17:53;;;;;;;7.55;1.80;;;;;;;19.49;30.80;102192.03;5069022;28;20035;-70
2023/06/07 11:23:23;;;;;;;8.18;2.30;;;;;;;19.35;32.84;102197.28;5069421;27;20044;-71
2023/06/07 11:26:18;;;;;;;13.05;2.88;;;;;;;19.98;31.29;102191.03;5072126;28;20290;-71
2023/06/07 11:28:43;;;;;;;11.60;2.72;;;;;;;19.64;31.16;102208.91;5058955;27;20670;-72
2023/06/07 11:31:12;;;;;;;9.50;2.08;;;;;;;18.86;32.05;102200.00;5079296;27;20116;-71